Time;durP1;ratioP1;P1;durP2;ratioP2;P2;SDS_P1;SDS_P2;PMS_P1;PMS_P2;Temp;Humidity;BMP_temperature;BMP_pressure;BME280_temperature;BME280_humidity;BME280_pressure;Samples;Min_cycle;Max_cycle;Signal;HPM_P1;HPM_P2
2023/11/05 00:02:23;;;;;;;10.82;4.50;;;;;;;;;;5045193;28;20098;-59
2023/11/05 00:04:49;;;;;;;4.70;3.15;;;;;;;;;;5041770;28;20026;-59
2023/11/05 00:07:15;;;;;;;2.42;1.90;;;;;;;;;;5049494;28;20551;-59
2023/11/05 00:09:42;;;;;;;3.33;2.20;;;;;;;;;;5051049;28;20492;-59
2023/11/05 00:12:08;;;;;;;2.38;2.00;;;;;;;;;;5050579;28;20146;-60
2023/11/05 00:14:34;;;;;;;4.63;1.73;;;;;;;;;;5048068;28;20036;-60
2023/11/05 00:17:00;;;;;;;1.63;1.30;;;;;;;;;;5046355;28;20032;-60
2023/11/05 00:19:26;;;;;;;2.47;1.60;;;;;;;;;;5051101;28;20047;-60
2023/11/05 00:21:52;;;;;;;2.05;1.83;;;;;;;;;;5045133;28;20106;-60
2023/11/05 00:24:18;;;;;;;2.67;1.55;;;;;;;;;;5047756;28;20024;-60
2023/11/05 00:26:44;;;;;;;3.47;1.77;;;;;;;;;;5049934;28;20086;-60
2023/11/05 00:29:11;;;;;;;3.15;1.38;;;;;;;;;;5041486;28;20079;-60
2023/11/05 00:31:37;;;;;;;2.22;1.63;;;;;;;;;;5041434;28;20447;-60
2023/11/05 00:34:03;;;;;;;1.30;1.20;;;;;;;;;;5049813;28;20064;-60
2023/11/05 00:36:29;;;;;;;1.48;1.17;;;;;;;;;;5044813;28;20474;-60
2023/11/05 00:38:56;;;;;;;1.83;1.38;;;;;;;;;;5051606;28;20047;-60
2023/11/05 00:41:22;;;;;;;2.28;1.50;;;;;;;;;;5044010;28;20607;-60
2023/11/05 00:43:48;;;;;;;1.40;1.30;;;;;;;;;;5039850;28;20091;-61
2023/11/05 00:46:14;;;;;;;2.15;1.80;;;;;;;;;;5048498;28;20033;-60
2023/11/05 00:48:40;;;;;;;2.35;1.30;;;;;;;;;;5047316;28;20355;-61
2023/11/05 00:51:06;;;;;;;1.98;1.45;;;;;;;;;;5039743;28;20044;-61
2023/11/05 00:53:32;;;;;;;1.92;0.98;;;;;;;;;;5048817;28;20032;-60
2023/11/05 00:55:58;;;;;;;2.38;1.38;;;;;;;;;;5051789;28;20225;-61
2023/11/05 00:58:24;;;;;;;2.22;1.83;;;;;;;;;;5046662;28;20474;-61
2023/11/05 01:00:50;;;;;;;1.02;0.98;;;;;;;;;;5051072;28;20040;-61
2023/11/05 01:03:16;;;;;;;1.52;1.10;;;;;;;;;;5038709;28;20038;-61
2023/11/05 01:05:42;;;;;;;0.95;0.80;;;;;;;;;;5049885;28;20031;-61
2023/11/05 01:08:08;;;;;;;1.27;0.90;;;;;;;;;;5038810;28;20029;-61
2023/11/05 01:10:34;;;;;;;2.13;1.13;;;;;;;;;;5038486;28;20071;-60
2023/11/05 01:13:00;;;;;;;2.42;1.20;;;;;;;;;;5040598;28;20070;-61
2023/11/05 01:15:26;;;;;;;1.58;1.20;;;;;;;;;;5037476;28;20116;-61
2023/11/05 01:17:52;;;;;;;1.17;0.90;;;;;;;;;;5042783;28;20025;-61
2023/11/05 01:20:18;;;;;;;1.42;1.08;;;;;;;;;;5046002;28;20082;-60
2023/11/05 01:22:44;;;;;;;1.83;1.00;;;;;;;;;;5053495;28;20478;-61
2023/11/05 01:25:10;;;;;;;1.45;1.08;;;;;;;;;;5055347;28;20478;-61
2023/11/05 01:27:37;;;;;;;1.90;1.27;;;;;;;;;;5054951;28;20093;-60
2023/11/05 01:30:03;;;;;;;0.88;0.70;;;;;;;;;;5053632;28;20029;-60
2023/11/05 01:32:29;;;;;;;0.80;0.80;;;;;;;;;;5045036;28;20021;-60
2023/11/05 01:34:55;;;;;;;1.08;1.02;;;;;;;;;;5053250;28;20032;-60
2023/11/05 01:37:21;;;;;;;2.13;1.05;;;;;;;;;;5051726;28;20021;-60
2023/11/05 01:39:47;;;;;;;2.25;1.30;;;;;;;;;;5051936;28;20544;-60
2023/11/05 01:42:13;;;;;;;0.90;0.75;;;;;;;;;;5050027;28;20060;-59
2023/11/05 01:44:39;;;;;;;1.77;0.68;;;;;;;;;;5045214;28;20021;-60
2023/11/05 01:47:05;;;;;;;1.88;1.00;;;;;;;;;;5049317;28;20031;-60
2023/11/05 01:49:31;;;;;;;2.50;1.40;;;;;;;;;;5054745;28;20021;-60
2023/11/05 01:51:58;;;;;;;0.95;0.85;;;;;;;;;;5050588;28;20025;-60
2023/11/05 01:54:24;;;;;;;2.95;1.25;;;;;;;;;;5039266;28;20045;-60
2023/11/05 01:56:50;;;;;;;1.70;1.45;;;;;;;;;;5051557;28;20514;-60
2023/11/05 01:59:16;;;;;;;1.10;1.00;;;;;;;;;;5046598;28;20028;-60
2023/11/05 02:01:42;;;;;;;3.33;1.20;;;;;;;;;;5054532;28;20200;-60
2023/11/05 02:04:09;;;;;;;1.75;1.02;;;;;;;;;;5054708;28;20445;-59
2023/11/05 02:06:35;;;;;;;1.40;1.17;;;;;;;;;;5044100;28;20029;-59
2023/11/05 02:09:01;;;;;;;1.15;0.93;;;;;;;;;;5051490;28;20029;-59
2023/11/05 02:11:27;;;;;;;1.20;1.10;;;;;;;;;;5048776;28;20478;-59
2023/11/05 02:13:54;;;;;;;1.17;1.08;;;;;;;;;;5043714;28;20032;-59
2023/11/05 02:16:21;;;;;;;1.55;1.38;;;;;;;;;;5039632;28;20037;-60
2023/11/05 02:18:47;;;;;;;0.98;0.90;;;;;;;;;;5051221;28;20152;-60
2023/11/05 02:21:45;;;;;;;1.13;0.98;;;;;;;;;;5050814;28;20493;-59
2023/11/05 02:24:11;;;;;;;1.17;1.05;;;;;;;;;;5015070;28;20037;-59
2023/11/05 02:26:37;;;;;;;0.75;0.73;;;;;;;;;;5041824;28;20032;-59
2023/11/05 02:29:03;;;;;;;2.45;1.13;;;;;;;;;;5044229;28;20029;-60
2023/11/05 02:31:29;;;;;;;1.10;1.00;;;;;;;;;;5044132;28;20024;-59
2023/11/05 02:33:55;;;;;;;1.38;1.15;;;;;;;;;;5050394;28;20430;-59
2023/11/05 02:36:21;;;;;;;1.63;0.80;;;;;;;;;;5046970;28;20017;-59
2023/11/05 02:38:47;;;;;;;1.27;0.77;;;;;;;;;;5046464;28;20075;-60
2023/11/05 02:41:13;;;;;;;2.67;1.08;;;;;;;;;;5051817;28;20056;-60
2023/11/05 02:43:40;;;;;;;1.55;1.20;;;;;;;;;;5048702;28;20103;-60
2023/11/05 02:46:06;;;;;;;1.05;0.88;;;;;;;;;;5053240;28;20070;-60
2023/11/05 02:48:35;;;;;;;1.05;0.75;;;;;;;;;;5043487;28;20083;-60
2023/11/05 02:51:01;;;;;;;1.90;1.10;;;;;;;;;;5047126;28;20360;-59
2023/11/05 02:53:27;;;;;;;2.10;1.10;;;;;;;;;;5054101;28;20076;-59
2023/11/05 02:55:53;;;;;;;1.00;0.90;;;;;;;;;;5048122;28;20421;-59
2023/11/05 02:58:19;;;;;;;2.30;0.80;;;;;;;;;;5046017;28;20071;-60
2023/11/05 03:00:45;;;;;;;0.75;0.70;;;;;;;;;;5043598;28;20044;-59
2023/11/05 03:03:12;;;;;;;1.08;0.70;;;;;;;;;;5053413;28;20174;-58
2023/11/05 03:05:40;;;;;;;1.02;0.80;;;;;;;;;;5052253;28;20525;-60
2023/11/05 03:08:06;;;;;;;0.52;0.45;;;;;;;;;;5052819;28;20036;-60
2023/11/05 03:10:32;;;;;;;0.90;0.90;;;;;;;;;;5045033;28;20033;-60
2023/11/05 03:12:58;;;;;;;1.75;0.85;;;;;;;;;;5043447;28;20021;-60
2023/11/05 03:15:24;;;;;;;2.00;0.70;;;;;;;;;;5049013;28;20497;-59
2023/11/05 03:17:50;;;;;;;0.60;0.52;;;;;;;;;;5043719;28;20044;-59
2023/11/05 03:20:17;;;;;;;0.68;0.50;;;;;;;;;;5048588;28;20047;-59
2023/11/05 03:22:43;;;;;;;0.70;0.57;;;;;;;;;;5053175;28;20037;-60
2023/11/05 03:25:10;;;;;;;1.08;0.73;;;;;;;;;;5053293;28;20025;-59
2023/11/05 03:27:36;;;;;;;0.40;0.40;;;;;;;;;;5048011;28;20021;-60
2023/11/05 03:30:02;;;;;;;1.45;0.60;;;;;;;;;;5052353;28;20033;-59
2023/11/05 03:32:29;;;;;;;0.60;0.60;;;;;;;;;;5049473;28;20032;-59
2023/11/05 03:34:55;;;;;;;0.82;0.65;;;;;;;;;;5051273;28;20032;-60
2023/11/05 03:37:21;;;;;;;0.73;0.73;;;;;;;;;;5047965;28;20032;-60
2023/11/05 03:39:48;;;;;;;2.20;0.75;;;;;;;;;;5051575;28;20025;-60
2023/11/05 03:42:15;;;;;;;2.20;1.60;;;;;;;;;;5049339;28;20033;-60
2023/11/05 03:44:41;;;;;;;2.33;1.70;;;;;;;;;;5047944;28;20104;-60
2023/11/05 03:47:07;;;;;;;1.98;1.77;;;;;;;;;;5050220;28;20112;-59
2023/11/05 03:49:33;;;;;;;1.73;1.63;;;;;;;;;;5048841;28;20182;-60
2023/11/05 03:51:59;;;;;;;2.13;2.03;;;;;;;;;;5050708;28;20048;-59
2023/11/05 03:54:26;;;;;;;2.78;2.58;;;;;;;;;;5043701;28;20367;-59
2023/11/05 03:56:52;;;;;;;5.25;4.43;;;;;;;;;;5046988;28;20017;-59
2023/11/05 03:59:18;;;;;;;4.15;3.75;;;;;;;;;;5035549;28;20355;-59
2023/11/05 04:01:48;;;;;;;4.53;4.13;;;;;;;;;;5050674;28;20033;-59
2023/11/05 04:04:14;;;;;;;4.07;3.72;;;;;;;;;;5040719;28;20064;-59
2023/11/05 04:06:40;;;;;;;3.83;3.47;;;;;;;;;;5040702;28;21738;-59
2023/11/05 04:09:06;;;;;;;4.35;4.05;;;;;;;;;;5041288;28;20044;-59
2023/11/05 04:11:32;;;;;;;3.20;2.90;;;;;;;;;;5046998;28;20025;-59
2023/11/05 04:13:59;;;;;;;2.25;1.98;;;;;;;;;;5045563;28;20025;-59
2023/11/05 04:16:25;;;;;;;1.98;1.88;;;;;;;;;;5047713;28;20155;-59
2023/11/05 04:18:50;;;;;;;2.67;2.47;;;;;;;;;;5043497;28;20176;-60
2023/11/05 04:21:18;;;;;;;2.22;2.10;;;;;;;;;;5040576;28;20062;-59
2023/11/05 04:23:44;;;;;;;2.75;2.55;;;;;;;;;;5052121;28;20116;-59
2023/11/05 04:26:12;;;;;;;2.47;2.28;;;;;;;;;;5050232;28;20079;-59
2023/11/05 04:28:38;;;;;;;3.45;2.90;;;;;;;;;;5037926;28;20051;-59
2023/11/05 04:31:04;;;;;;;4.10;3.63;;;;;;;;;;5039349;28;20029;-58
2023/11/05 04:33:30;;;;;;;5.07;4.53;;;;;;;;;;5044326;28;20034;-59
2023/11/05 04:35:56;;;;;;;3.10;2.85;;;;;;;;;;5043940;28;20043;-59
2023/11/05 04:38:22;;;;;;;3.33;3.03;;;;;;;;;;5051886;28;20056;-58
2023/11/05 04:40:48;;;;;;;3.92;3.63;;;;;;;;;;5048394;28;20057;-58
2023/11/05 04:43:14;;;;;;;3.88;3.58;;;;;;;;;;5051766;28;20045;-60
2023/11/05 04:45:40;;;;;;;4.70;4.22;;;;;;;;;;5049662;28;20102;-59
2023/11/05 04:48:06;;;;;;;4.57;4.15;;;;;;;;;;5051699;28;20048;-59
2023/11/05 04:50:32;;;;;;;4.57;4.18;;;;;;;;;;5044059;28;20036;-58
2023/11/05 04:52:58;;;;;;;4.90;4.45;;;;;;;;;;5044256;28;20413;-58
2023/11/05 04:55:24;;;;;;;4.05;3.60;;;;;;;;;;5044785;28;20021;-59
2023/11/05 04:57:50;;;;;;;3.40;3.10;;;;;;;;;;5040263;28;20113;-59
2023/11/05 05:00:16;;;;;;;4.97;3.03;;;;;;;;;;5038895;28;20415;-58
2023/11/05 05:02:43;;;;;;;3.63;3.30;;;;;;;;;;5046781;28;20029;-58
2023/11/05 05:05:09;;;;;;;3.25;2.95;;;;;;;;;;5041911;28;20027;-58
2023/11/05 05:07:35;;;;;;;3.20;2.90;;;;;;;;;;5051658;28;20063;-58
2023/11/05 05:10:00;;;;;;;4.35;4.00;;;;;;;;;;5039190;28;20049;-58
2023/11/05 05:12:28;;;;;;;6.32;4.57;;;;;;;;;;5044010;28;20064;-58
2023/11/05 05:14:54;;;;;;;6.18;5.20;;;;;;;;;;5035850;28;20430;-58
2023/11/05 05:17:20;;;;;;;6.30;5.65;;;;;;;;;;5037345;28;20021;-58
2023/11/05 05:19:46;;;;;;;5.95;5.20;;;;;;;;;;5046330;28;20508;-59
2023/11/05 05:22:12;;;;;;;7.35;6.47;;;;;;;;;;5046544;28;20394;-58
2023/11/05 05:24:38;;;;;;;7.82;5.28;;;;;;;;;;5048633;28;20017;-57
2023/11/05 05:27:04;;;;;;;5.63;5.10;;;;;;;;;;5038507;28;20488;-58
2023/11/05 05:29:30;;;;;;;6.38;5.70;;;;;;;;;;5048852;28;20033;-57
2023/11/05 05:31:56;;;;;;;7.57;6.00;;;;;;;;;;5042203;28;20037;-57
2023/11/05 05:34:22;;;;;;;7.22;6.35;;;;;;;;;;5049220;28;20083;-57
2023/11/05 05:36:48;;;;;;;8.52;7.10;;;;;;;;;;5040923;28;20038;-58
2023/11/05 05:39:14;;;;;;;8.27;7.47;;;;;;;;;;5045936;28;20018;-58
2023/11/05 05:41:40;;;;;;;7.32;6.63;;;;;;;;;;5042498;28;20466;-57
2023/11/05 05:44:06;;;;;;;11.43;8.15;;;;;;;;;;5045608;28;20029;-58
2023/11/05 05:46:32;;;;;;;7.95;7.15;;;;;;;;;;5044384;28;20040;-57
2023/11/05 05:48:58;;;;;;;8.73;7.82;;;;;;;;;;5051330;28;20097;-59
2023/11/05 05:51:24;;;;;;;8.32;7.38;;;;;;;;;;5038695;28;20454;-59
2023/11/05 05:53:50;;;;;;;9.35;8.45;;;;;;;;;;5047587;28;20025;-57
2023/11/05 05:56:16;;;;;;;11.30;9.38;;;;;;;;;;5049672;28;20127;-57
2023/11/05 05:58:42;;;;;;;13.52;9.60;;;;;;;;;;5050594;28;20122;-57
2023/11/05 06:01:08;;;;;;;12.60;9.88;;;;;;;;;;5040399;28;20033;-57
2023/11/05 06:03:34;;;;;;;11.48;9.50;;;;;;;;;;5041649;28;20482;-56
2023/11/05 06:06:00;;;;;;;10.93;9.10;;;;;;;;;;5041599;28;20024;-58
2023/11/05 06:08:26;;;;;;;13.35;10.15;;;;;;;;;;5054403;28;20025;-58
2023/11/05 06:10:52;;;;;;;14.70;10.98;;;;;;;;;;5051692;28;20027;-58
2023/11/05 06:13:20;;;;;;;13.73;10.00;;;;;;;;;;5050750;28;20096;-58
2023/11/05 06:15:46;;;;;;;13.55;9.88;;;;;;;;;;5043985;28;20013;-56
2023/11/05 06:18:12;;;;;;;12.85;11.05;;;;;;;;;;5040609;28;20091;-56
2023/11/05 06:20:39;;;;;;;12.43;9.80;;;;;;;;;;5051432;28;20017;-57
2023/11/05 06:23:04;;;;;;;13.27;9.77;;;;;;;;;;5040232;28;20029;-57
2023/11/05 06:25:31;;;;;;;11.50;9.15;;;;;;;;;;5050943;28;20100;-58
2023/11/05 06:27:57;;;;;;;11.07;9.35;;;;;;;;;;5054394;28;20040;-58
2023/11/05 06:30:23;;;;;;;15.27;10.10;;;;;;;;;;5049134;28;20025;-58
2023/11/05 06:32:49;;;;;;;14.52;10.73;;;;;;;;;;5043128;28;20104;-57
2023/11/05 06:35:15;;;;;;;13.25;10.93;;;;;;;;;;5047309;28;20025;-57
2023/11/05 06:37:41;;;;;;;13.95;11.07;;;;;;;;;;5050903;28;20025;-57
2023/11/05 06:40:08;;;;;;;11.80;9.88;;;;;;;;;;5050092;28;20089;-56
2023/11/05 06:42:34;;;;;;;14.73;10.77;;;;;;;;;;5052903;28;20041;-57
2023/11/05 06:45:00;;;;;;;14.80;10.52;;;;;;;;;;5051884;28;20507;-56
2023/11/05 06:47:26;;;;;;;14.02;10.15;;;;;;;;;;5048661;28;20041;-58
2023/11/05 06:49:52;;;;;;;12.07;10.43;;;;;;;;;;5050588;28;20017;-57
2023/11/05 06:52:18;;;;;;;18.90;12.30;;;;;;;;;;5046601;28;20417;-57
2023/11/05 06:54:44;;;;;;;16.63;11.13;;;;;;;;;;5038072;28;20025;-57
2023/11/05 06:57:10;;;;;;;13.38;10.70;;;;;;;;;;5035374;28;20528;-57
2023/11/05 06:59:36;;;;;;;15.30;10.23;;;;;;;;;;5049629;28;20094;-57
2023/11/05 07:02:03;;;;;;;12.50;10.13;;;;;;;;;;5044985;28;20037;-55
2023/11/05 07:04:29;;;;;;;12.80;9.63;;;;;;;;;;5044239;28;20393;-57
2023/11/05 07:06:56;;;;;;;13.85;10.10;;;;;;;;;;5051784;28;20029;-56
2023/11/05 07:09:22;;;;;;;11.60;9.70;;;;;;;;;;5051244;28;20025;-57
2023/11/05 07:11:48;;;;;;;12.93;9.75;;;;;;;;;;5047792;28;20434;-56
2023/11/05 07:14:15;;;;;;;13.23;10.68;;;;;;;;;;5044085;28;20103;-58
2023/11/05 07:16:41;;;;;;;14.00;9.02;;;;;;;;;;5042025;28;20060;-57
2023/11/05 07:19:07;;;;;;;11.38;9.45;;;;;;;;;;5036936;28;20108;-58
2023/11/05 07:21:33;;;;;;;11.30;9.55;;;;;;;;;;5042780;28;20021;-58
2023/11/05 07:23:59;;;;;;;10.07;7.82;;;;;;;;;;5044571;28;20025;-57
2023/11/05 07:26:26;;;;;;;8.77;7.93;;;;;;;;;;5039005;28;20025;-54
2023/11/05 07:28:52;;;;;;;8.32;7.07;;;;;;;;;;5040574;28;20030;-58
2023/11/05 07:31:19;;;;;;;7.15;6.45;;;;;;;;;;5049300;28;20025;-57
2023/11/05 07:33:45;;;;;;;8.27;6.72;;;;;;;;;;5041504;28;20024;-57
2023/11/05 07:36:11;;;;;;;8.52;7.40;;;;;;;;;;5048477;28;20206;-56
2023/11/05 07:38:37;;;;;;;7.93;6.82;;;;;;;;;;5046754;28;20458;-56
2023/11/05 07:41:03;;;;;;;8.63;7.72;;;;;;;;;;5041191;28;20056;-55
2023/11/05 07:43:29;;;;;;;8.50;7.43;;;;;;;;;;5049793;28;20102;-57
2023/11/05 07:45:55;;;;;;;7.07;6.38;;;;;;;;;;5051595;28;20459;-56
2023/11/05 07:48:21;;;;;;;7.80;7.00;;;;;;;;;;5052116;28;20020;-57
2023/11/05 07:50:50;;;;;;;6.50;5.90;;;;;;;;;;5049327;28;20450;-57
2023/11/05 07:53:16;;;;;;;7.38;6.63;;;;;;;;;;5054018;28;20037;-56
2023/11/05 07:55:42;;;;;;;6.43;5.75;;;;;;;;;;5052300;28;20021;-57
2023/11/05 07:58:09;;;;;;;6.80;5.97;;;;;;;;;;5037752;28;20888;-57
2023/11/05 08:00:35;;;;;;;9.00;6.18;;;;;;;;;;5042790;28;20021;-56
2023/11/05 08:03:02;;;;;;;7.00;6.30;;;;;;;;;;5041149;28;20056;-57
2023/11/05 08:05:28;;;;;;;6.80;6.15;;;;;;;;;;5050163;28;20017;-53
2023/11/05 08:07:54;;;;;;;8.10;6.10;;;;;;;;;;5046737;28;20022;-57
2023/11/05 08:10:20;;;;;;;6.97;6.25;;;;;;;;;;5042642;28;20064;-57
2023/11/05 08:12:47;;;;;;;8.73;6.30;;;;;;;;;;5041987;28;20032;-57
2023/11/05 08:15:13;;;;;;;6.20;5.60;;;;;;;;;;5048256;28;20032;-57
2023/11/05 08:17:39;;;;;;;6.70;6.05;;;;;;;;;;5044988;28;20493;-55
2023/11/05 08:20:05;;;;;;;6.60;5.70;;;;;;;;;;5044764;28;20463;-55
2023/11/05 08:22:32;;;;;;;6.85;6.15;;;;;;;;;;5050239;28;20037;-57
2023/11/05 08:24:57;;;;;;;7.72;6.63;;;;;;;;;;5046792;28;20520;-55
2023/11/05 08:27:24;;;;;;;7.45;6.07;;;;;;;;;;5042721;28;20037;-55
2023/11/05 08:29:50;;;;;;;6.25;5.38;;;;;;;;;;5046074;28;20457;-58
2023/11/05 08:32:17;;;;;;;6.00;4.60;;;;;;;;;;5044207;28;20116;-56
2023/11/05 08:34:43;;;;;;;4.57;4.18;;;;;;;;;;5047524;28;20430;-57
2023/11/05 08:37:09;;;;;;;5.13;4.43;;;;;;;;;;5041617;28;20060;-58
2023/11/05 08:39:35;;;;;;;6.40;4.95;;;;;;;;;;5036543;28;20036;-56
2023/11/05 08:42:02;;;;;;;6.63;4.68;;;;;;;;;;5041535;28;20140;-53
2023/11/05 08:44:28;;;;;;;3.60;3.30;;;;;;;;;;5043481;28;20048;-57
2023/11/05 08:46:54;;;;;;;4.30;3.92;;;;;;;;;;5045221;28;20048;-57
2023/11/05 08:49:20;;;;;;;4.35;3.80;;;;;;;;;;5042936;28;20045;-58
2023/11/05 08:51:46;;;;;;;5.32;3.65;;;;;;;;;;5044038;28;20100;-57
2023/11/05 08:54:12;;;;;;;4.68;3.78;;;;;;;;;;5048590;28;20021;-57
2023/11/05 08:56:42;;;;;;;3.78;3.38;;;;;;;;;;5047369;28;20474;-56
2023/11/05 08:59:08;;;;;;;3.03;2.72;;;;;;;;;;5039818;28;20394;-56
2023/11/05 09:01:34;;;;;;;2.75;2.47;;;;;;;;;;5046245;28;20029;-52
2023/11/05 09:04:00;;;;;;;2.65;2.45;;;;;;;;;;5037725;28;20026;-57
2023/11/05 09:06:29;;;;;;;2.83;2.50;;;;;;;;;;5042284;28;20029;-55
2023/11/05 09:08:55;;;;;;;8.02;4.38;;;;;;;;;;5043546;28;20025;-60
2023/11/05 09:11:22;;;;;;;4.13;2.92;;;;;;;;;;5046164;28;20032;-61
2023/11/05 09:13:48;;;;;;;3.03;2.70;;;;;;;;;;5048962;28;20029;-61
2023/11/05 09:16:15;;;;;;;1.75;1.63;;;;;;;;;;5040433;28;20083;-61
2023/11/05 09:18:41;;;;;;;2.85;2.30;;;;;;;;;;5040627;28;20036;-61
2023/11/05 09:21:07;;;;;;;2.45;1.90;;;;;;;;;;5042267;28;20021;-61
2023/11/05 09:23:33;;;;;;;2.00;1.85;;;;;;;;;;5036509;28;20498;-61
2023/11/05 09:25:59;;;;;;;1.75;1.50;;;;;;;;;;5036856;28;20036;-61
2023/11/05 09:28:25;;;;;;;3.17;1.58;;;;;;;;;;5034131;28;20025;-61
2023/11/05 09:30:52;;;;;;;1.55;1.30;;;;;;;;;;5043990;28;20025;-61
2023/11/05 09:33:18;;;;;;;1.23;1.13;;;;;;;;;;5049319;28;20033;-61
2023/11/05 09:35:44;;;;;;;1.30;1.20;;;;;;;;;;5051556;28;20044;-61
2023/11/05 09:38:10;;;;;;;1.50;1.40;;;;;;;;;;5038214;28;20029;-61
2023/11/05 09:40:36;;;;;;;2.60;1.70;;;;;;;;;;5044077;28;20053;-61
2023/11/05 09:43:05;;;;;;;2.35;1.92;;;;;;;;;;5053707;28;20033;-61
2023/11/05 09:45:34;;;;;;;2.00;1.67;;;;;;;;;;5055150;28;20021;-60
2023/11/05 09:48:13;;;;;;;2.40;2.20;;;;;;;;;;5053217;28;20022;-60
2023/11/05 09:50:41;;;;;;;2.53;2.33;;;;;;;;;;5055368;28;20108;-60
2023/11/05 09:53:10;;;;;;;2.80;2.13;;;;;;;;;;5054637;28;20433;-60
2023/11/05 09:55:36;;;;;;;2.40;1.80;;;;;;;;;;5054977;28;20020;-60
2023/11/05 09:58:02;;;;;;;2.20;2.05;;;;;;;;;;5051579;28;20017;-60
2023/11/05 10:00:32;;;;;;;2.20;1.90;;;;;;;;;;5054510;28;20075;-60
2023/11/05 10:02:58;;;;;;;2.25;2.05;;;;;;;;;;5054632;28;20474;-60
2023/11/05 10:05:29;;;;;;;2.10;1.90;;;;;;;;;;5049726;28;20100;-60
2023/11/05 10:07:55;;;;;;;1.90;1.80;;;;;;;;;;5040690;28;20022;-60
2023/11/05 10:10:21;;;;;;;5.85;1.88;;;;;;;;;;5040124;28;20032;-60
2023/11/05 10:12:47;;;;;;;2.33;1.80;;;;;;;;;;5048885;28;20103;-60
2023/11/05 10:15:13;;;;;;;1.92;1.48;;;;;;;;;;5054375;28;20649;-60
2023/11/05 10:17:39;;;;;;;3.17;1.60;;;;;;;;;;5054594;28;20017;-60
2023/11/05 10:20:06;;;;;;;2.15;1.50;;;;;;;;;;5043798;28;20078;-60
2023/11/05 10:22:33;;;;;;;1.35;1.20;;;;;;;;;;5044900;28;20036;-60
2023/11/05 10:24:59;;;;;;;1.48;1.38;;;;;;;;;;5046202;28;20459;-60
2023/11/05 10:27:43;;;;;;;1.40;1.30;;;;;;;;;;5044746;28;20047;-60
2023/11/05 10:30:10;;;;;;;2.08;1.48;;;;;;;;;;5046684;28;20079;-60
2023/11/05 10:32:38;;;;;;;2.17;1.63;;;;;;;;;;5043746;28;20025;-60
2023/11/05 10:35:04;;;;;;;2.55;2.10;;;;;;;;;;5055588;28;20390;-60
2023/11/05 10:37:30;;;;;;;2.92;1.63;;;;;;;;;;5055609;28;20037;-60
2023/11/05 10:39:56;;;;;;;3.10;2.80;;;;;;;;;;5054406;28;20079;-60
2023/11/05 10:42:23;;;;;;;2.38;1.80;;;;;;;;;;5053827;28;20040;-60
2023/11/05 10:44:49;;;;;;;1.50;1.40;;;;;;;;;;5048830;28;20074;-60
2023/11/05 10:47:18;;;;;;;2.22;1.70;;;;;;;;;;5052224;28;20522;-60
2023/11/05 10:49:48;;;;;;;1.10;1.00;;;;;;;;;;5049727;28;20054;-60
2023/11/05 10:52:14;;;;;;;0.80;0.80;;;;;;;;;;5046316;28;20049;-60
2023/11/05 10:54:40;;;;;;;1.25;1.15;;;;;;;;;;5060636;28;20132;-60
2023/11/05 10:57:29;;;;;;;1.73;1.08;;;;;;;;;;5053270;28;20097;-60
2023/11/05 10:59:55;;;;;;;1.23;1.13;;;;;;;;;;5045082;28;20043;-60
2023/11/05 11:02:21;;;;;;;1.42;1.02;;;;;;;;;;5057302;28;20033;-60
2023/11/05 11:04:47;;;;;;;2.60;1.23;;;;;;;;;;5061421;28;20117;-60
2023/11/05 11:07:14;;;;;;;1.90;1.75;;;;;;;;;;5050486;28;20382;-60
2023/11/05 11:09:40;;;;;;;2.00;1.20;;;;;;;;;;5054611;28;20017;-55
2023/11/05 11:12:26;;;;;;;1.85;1.15;;;;;;;;;;5059496;28;20048;-57
2023/11/05 11:14:52;;;;;;;1.88;1.30;;;;;;;;;;5052262;28;20481;-56
2023/11/05 11:17:18;;;;;;;1.67;1.08;;;;;;;;;;5066042;28;20017;-56
2023/11/05 11:19:45;;;;;;;1.25;1.15;;;;;;;;;;5054474;28;20039;-53
2023/11/05 11:22:11;;;;;;;2.53;1.35;;;;;;;;;;5061001;28;20085;-54
2023/11/05 11:24:40;;;;;;;2.20;1.45;;;;;;;;;;5052799;28;20029;-56
2023/11/05 11:27:07;;;;;;;1.38;1.05;;;;;;;;;;5038252;28;20398;-54
2023/11/05 11:29:34;;;;;;;0.68;0.68;;;;;;;;;;5041959;28;20021;-54
2023/11/05 11:32:01;;;;;;;0.68;0.65;;;;;;;;;;5049979;28;20024;-51
2023/11/05 11:34:27;;;;;;;0.90;0.75;;;;;;;;;;5044829;28;20474;-52
2023/11/05 11:37:03;;;;;;;1.63;0.43;;;;;;;;;;5032031;28;20026;-53
2023/11/05 11:39:29;;;;;;;0.57;0.55;;;;;;;;;;5051530;28;20024;-56
2023/11/05 11:41:56;;;;;;;1.70;1.00;;;;;;;;;;5052608;28;20072;-54
2023/11/05 11:44:22;;;;;;;1.50;0.77;;;;;;;;;;5052956;28;20071;-52
2023/11/05 11:46:49;;;;;;;1.20;0.70;;;;;;;;;;5052907;28;20044;-55
2023/11/05 11:49:15;;;;;;;1.05;0.80;;;;;;;;;;5052674;28;20155;-54
2023/11/05 11:51:41;;;;;;;0.90;0.75;;;;;;;;;;5052369;28;20075;-53
2023/11/05 11:54:09;;;;;;;0.70;0.70;;;;;;;;;;5049922;28;20366;-56
2023/11/05 11:56:36;;;;;;;1.55;0.77;;;;;;;;;;5052293;28;20020;-53
2023/11/05 11:59:03;;;;;;;1.02;0.93;;;;;;;;;;5052503;28;20039;-53
2023/11/05 12:01:30;;;;;;;0.90;0.90;;;;;;;;;;5052370;28;20024;-51
2023/11/05 12:03:57;;;;;;;0.98;0.85;;;;;;;;;;5037998;28;20029;-57
2023/11/05 12:06:23;;;;;;;1.10;0.90;;;;;;;;;;5050262;28;20017;-55
2023/11/05 12:08:49;;;;;;;1.30;0.65;;;;;;;;;;5052639;28;20405;-56
2023/11/05 12:11:16;;;;;;;3.58;1.20;;;;;;;;;;5052350;28;20029;-55
2023/11/05 12:13:43;;;;;;;1.73;1.23;;;;;;;;;;5049658;28;20017;-53
2023/11/05 12:16:10;;;;;;;1.73;1.23;;;;;;;;;;5045378;28;20060;-56
2023/11/05 12:18:39;;;;;;;2.35;1.10;;;;;;;;;;5052136;28;20021;-53
2023/11/05 12:21:07;;;;;;;2.15;1.33;;;;;;;;;;5052212;28;20025;-57
2023/11/05 12:23:33;;;;;;;0.70;0.70;;;;;;;;;;5052155;28;20091;-54
2023/11/05 12:26:00;;;;;;;0.95;0.85;;;;;;;;;;5052095;28;20104;-53
2023/11/05 12:28:30;;;;;;;2.55;1.40;;;;;;;;;;5052366;28;20025;-56
2023/11/05 12:30:56;;;;;;;1.23;1.10;;;;;;;;;;5051986;28;20017;-55
2023/11/05 12:33:23;;;;;;;2.65;0.95;;;;;;;;;;5052104;28;20085;-56
2023/11/05 12:35:50;;;;;;;1.13;1.02;;;;;;;;;;5049751;28;20048;-54
2023/11/05 12:38:16;;;;;;;1.33;1.23;;;;;;;;;;5040824;28;20263;-54
2023/11/05 12:40:42;;;;;;;1.25;1.10;;;;;;;;;;5051888;28;20186;-53
2023/11/05 12:43:08;;;;;;;2.00;1.40;;;;;;;;;;5051770;28;20131;-52
2023/11/05 12:45:34;;;;;;;2.70;1.33;;;;;;;;;;5051771;28;20096;-56
2023/11/05 12:48:00;;;;;;;1.73;1.10;;;;;;;;;;5051816;28;20158;-55
2023/11/05 12:50:27;;;;;;;1.48;1.38;;;;;;;;;;5051903;28;20025;-56
2023/11/05 12:52:53;;;;;;;1.45;1.33;;;;;;;;;;5051707;28;20027;-57
2023/11/05 12:55:19;;;;;;;1.50;1.40;;;;;;;;;;5051795;28;20029;-57
2023/11/05 12:57:47;;;;;;;1.52;1.20;;;;;;;;;;5037762;28;20479;-56
2023/11/05 13:00:13;;;;;;;1.67;1.23;;;;;;;;;;5050263;28;20131;-57
2023/11/05 13:02:57;;;;;;;1.52;1.30;;;;;;;;;;5051651;28;20029;-55
2023/11/05 13:05:23;;;;;;;2.28;1.65;;;;;;;;;;5051621;28;20017;-50
2023/11/05 13:07:50;;;;;;;1.77;1.42;;;;;;;;;;5051727;28;20059;-56
2023/11/05 13:10:16;;;;;;;5.53;2.00;;;;;;;;;;5051602;28;20373;-51
2023/11/05 13:12:42;;;;;;;2.35;1.92;;;;;;;;;;5051731;28;20508;-50
2023/11/05 13:15:12;;;;;;;2.55;1.67;;;;;;;;;;5053966;28;20100;-51
2023/11/05 13:17:38;;;;;;;1.27;1.13;;;;;;;;;;5049207;28;20108;-54
2023/11/05 13:20:08;;;;;;;2.53;1.98;;;;;;;;;;5046604;28;20021;-56
2023/11/05 13:22:35;;;;;;;3.90;1.65;;;;;;;;;;5051869;28;20032;-52
2023/11/05 13:25:02;;;;;;;2.25;1.42;;;;;;;;;;5052691;28;20055;-55
2023/11/05 13:27:28;;;;;;;2.15;1.40;;;;;;;;;;5053279;28;20078;-55
2023/11/05 13:29:54;;;;;;;2.05;1.65;;;;;;;;;;5053805;28;20010;-56
2023/11/05 13:32:20;;;;;;;3.65;1.85;;;;;;;;;;5055112;28;20030;-52
2023/11/05 13:34:46;;;;;;;1.65;1.52;;;;;;;;;;5055278;28;20032;-54
2023/11/05 13:37:12;;;;;;;1.52;1.33;;;;;;;;;;5055249;28;20092;-55
2023/11/05 13:39:38;;;;;;;2.22;1.27;;;;;;;;;;5055488;28;20045;-54
2023/11/05 13:42:05;;;;;;;4.13;1.33;;;;;;;;;;5046702;28;20044;-54
2023/11/05 13:44:30;;;;;;;1.70;1.38;;;;;;;;;;5049413;28;20052;-54
2023/11/05 13:46:57;;;;;;;2.08;1.35;;;;;;;;;;5055062;28;20471;-54
2023/11/05 13:49:22;;;;;;;1.13;1.02;;;;;;;;;;5055068;28;20033;-51
2023/11/05 13:51:49;;;;;;;1.33;1.15;;;;;;;;;;5048475;28;20085;-55
2023/11/05 13:54:14;;;;;;;1.75;0.85;;;;;;;;;;5042243;28;20029;-51
2023/11/05 13:56:40;;;;;;;1.52;1.30;;;;;;;;;;5049154;28;20036;-54
2023/11/05 13:59:07;;;;;;;2.10;1.00;;;;;;;;;;5036655;28;20514;-54
2023/11/05 14:01:35;;;;;;;1.48;1.10;;;;;;;;;;5048392;28;20017;-50
2023/11/05 14:04:01;;;;;;;3.03;1.42;;;;;;;;;;5050146;28;20095;-56
2023/11/05 14:06:26;;;;;;;5.80;1.88;;;;;;;;;;5060561;28;20037;-54
2023/11/05 14:08:52;;;;;;;5.10;3.75;;;;;;;;;;5038925;28;20026;-58
2023/11/05 14:11:19;;;;;;;45.25;37.13;;;;;;;;;;5036999;28;20037;-56
2023/11/05 14:13:45;;;;;;;2.90;2.20;;;;;;;;;;5041060;28;20041;-48
2023/11/05 14:16:11;;;;;;;1.98;1.67;;;;;;;;;;5042450;28;20356;-58
2023/11/05 14:18:37;;;;;;;3.28;2.13;;;;;;;;;;5041626;28;20037;-56
2023/11/05 14:21:04;;;;;;;3.28;2.60;;;;;;;;;;5050610;28;20025;-57
2023/11/05 14:23:30;;;;;;;2.60;1.55;;;;;;;;;;5055904;28;20069;-57
2023/11/05 14:25:58;;;;;;;2.47;1.65;;;;;;;;;;5051792;28;20457;-56
2023/11/05 14:28:24;;;;;;;1.10;0.90;;;;;;;;;;5048144;28;20051;-55
2023/11/05 14:30:50;;;;;;;2.80;1.58;;;;;;;;;;5046100;28;20710;-54
2023/11/05 14:33:16;;;;;;;236.43;173.65;;;;;;;;;;5053499;28;20060;-51
2023/11/05 14:35:45;;;;;;;14.48;9.43;;;;;;;;;;5051353;28;20029;-55
2023/11/05 14:38:11;;;;;;;4.25;3.00;;;;;;;;;;5042653;28;20063;-57